createdAt,value
2023-01-29T00:01:26.884Z,99197.04
2023-01-29T00:03:59.945Z,99205.66
2023-01-29T00:06:33.269Z,99201.98
2023-01-29T00:09:06.378Z,99200.13
2023-01-29T00:11:39.706Z,99194.90
2023-01-29T00:14:12.909Z,99202.85
2023-01-29T00:16:45.868Z,99189.30
2023-01-29T00:19:19.661Z,99203.72
2023-01-29T00:21:52.669Z,99190.69
2023-01-29T00:24:26.074Z,99197.45
2023-01-29T00:26:59.199Z,99194.03
2023-01-29T00:29:32.416Z,99188.30
2023-01-29T00:32:05.513Z,99190.16
2023-01-29T00:34:40.285Z,99185.75
2023-01-29T00:37:13.380Z,99184.97
2023-01-29T00:39:48.379Z,99178.08
2023-01-29T00:42:39.420Z,99170.59
2023-01-29T00:45:13.883Z,99163.29
2023-01-29T00:47:47.291Z,99168.23
2023-01-29T00:50:21.192Z,99169.19
2023-01-29T00:52:54.896Z,99158.09
2023-01-29T00:55:28.682Z,99161.27
2023-01-29T00:58:01.741Z,99159.50
2023-01-29T01:00:34.827Z,99161.97
2023-01-29T01:03:08.011Z,99158.62
2023-01-29T01:05:42.731Z,99164.61
2023-01-29T01:08:34.039Z,99156.16
2023-01-29T01:11:08.379Z,99163.04
2023-01-29T01:13:41.249Z,99165.47
2023-01-29T01:16:15.938Z,99164.61
2023-01-29T01:18:49.344Z,99174.66
2023-01-29T01:21:22.381Z,99167.78
2023-01-29T01:23:55.445Z,99168.64
2023-01-29T01:26:28.956Z,99163.54
2023-01-29T01:29:02.006Z,99157.56
2023-01-29T01:31:35.298Z,99151.47
2023-01-29T01:34:08.519Z,99151.38
2023-01-29T01:36:41.442Z,99155.53
2023-01-29T01:39:14.655Z,99144.33
2023-01-29T01:41:48.142Z,99148.45
2023-01-29T01:44:54.836Z,99150.84
2023-01-29T01:47:32.249Z,99148.28
2023-01-29T01:50:09.437Z,99138.85
2023-01-29T01:52:45.621Z,99137.00
2023-01-29T01:55:21.699Z,99135.43
2023-01-29T01:57:57.828Z,99130.41
2023-01-29T02:00:31.164Z,99134.73
2023-01-29T02:03:23.400Z,99129.70
2023-01-29T02:06:17.740Z,99119.65
2023-01-29T02:11:35.282Z,99105.75
2023-01-29T02:14:08.425Z,99105.02
2023-01-29T02:16:41.803Z,99111.20
2023-01-29T02:19:18.243Z,99112.97
2023-01-29T02:22:05.697Z,99105.39
2023-01-29T02:28:29.395Z,99087.77
2023-01-29T02:31:06.701Z,99092.70
2023-01-29T02:33:45.624Z,99089.02
2023-01-29T02:36:26.811Z,99081.51
2023-01-29T02:39:03.801Z,99070.50
2023-01-29T02:41:39.962Z,99073.84
2023-01-29T02:44:18.127Z,99071.29
2023-01-29T02:46:55.255Z,99056.74
2023-01-29T02:49:31.625Z,99054.73
2023-01-29T02:52:08.146Z,99058.27
2023-01-29T02:54:44.556Z,99051.30
2023-01-29T02:57:21.536Z,99044.43
2023-01-29T02:59:57.836Z,99042.03
2023-01-29T03:02:34.427Z,99037.12
2023-01-29T03:05:11.328Z,99041.25
2023-01-29T03:07:47.193Z,99041.09
2023-01-29T03:10:24.592Z,99035.43
2023-01-29T03:13:01.535Z,99033.86
2023-01-29T03:15:39.410Z,99031.19
2023-01-29T03:18:17.045Z,99024.23
2023-01-29T03:20:52.995Z,99025.91
2023-01-29T03:23:47.562Z,99018.52
2023-01-29T03:26:41.721Z,99004.41
2023-01-29T03:29:32.941Z,98999.10
2023-01-29T03:32:07.901Z,98976.86
2023-01-29T03:34:45.004Z,98993.48
2023-01-29T03:37:21.931Z,98993.33
2023-01-29T03:39:56.161Z,98978.16
2023-01-29T03:42:33.524Z,98978.16
2023-01-29T03:47:54.107Z,98969.34
2023-01-29T03:50:34.893Z,98973.94
2023-01-29T03:53:12.326Z,98963.02
2023-01-29T03:55:49.181Z,98959.55
2023-01-29T03:58:26.906Z,98961.32
2023-01-29T04:00:59.943Z,98953.81
2023-01-29T04:03:36.447Z,98960.17
2023-01-29T04:06:14.102Z,98954.08
2023-01-29T04:08:52.304Z,98948.97
2023-01-29T04:11:26.298Z,98941.86
2023-01-29T04:14:00.514Z,98932.55
2023-01-29T04:16:37.809Z,98943.09
2023-01-29T04:19:29.528Z,98940.53
2023-01-29T04:22:07.514Z,98941.52
2023-01-29T04:24:41.143Z,98947.48
2023-01-29T04:27:22.563Z,98948.47
2023-01-29T04:30:04.200Z,98940.61
2023-01-29T04:32:45.579Z,98937.27
2023-01-29T04:35:25.816Z,98935.50
2023-01-29T04:38:05.184Z,98939.83
2023-01-29T04:40:43.077Z,98935.42
2023-01-29T04:43:19.999Z,98937.27
2023-01-29T04:45:58.416Z,98939.03
2023-01-29T04:48:34.298Z,98936.48
2023-01-29T04:51:10.375Z,98937.45
2023-01-29T04:53:46.855Z,98930.58
2023-01-29T04:56:23.404Z,98919.38
2023-01-29T04:58:59.559Z,98920.17
2023-01-29T05:01:34.747Z,98928.81
2023-01-29T05:04:11.702Z,98924.57
2023-01-29T05:06:47.446Z,98923.78
2023-01-29T05:09:21.113Z,98918.59
2023-01-29T05:11:54.980Z,98917.73
2023-01-29T05:14:30.619Z,98912.50
2023-01-29T05:17:06.535Z,98914.12
2023-01-29T05:19:39.527Z,98911.41
2023-01-29T05:22:15.457Z,98914.75
2023-01-29T05:24:48.578Z,98908.03
2023-01-29T05:27:42.557Z,98919.94
2023-01-29T05:30:16.834Z,98913.85
2023-01-29T05:32:50.044Z,98912.98
2023-01-29T05:35:23.220Z,98905.24
2023-01-29T05:37:57.443Z,98919.59
2023-01-29T05:40:30.724Z,98917.23
2023-01-29T05:43:03.974Z,98923.20
2023-01-29T05:45:37.144Z,98922.34
2023-01-29T05:48:10.437Z,98923.20
2023-01-29T05:50:43.486Z,98917.38
2023-01-29T05:53:16.938Z,98919.23
2023-01-29T05:55:50.306Z,98911.56
2023-01-29T05:58:23.481Z,98914.98
2023-01-29T06:00:56.722Z,98916.83
2023-01-29T06:03:30.509Z,98919.30
2023-01-29T06:06:05.150Z,98920.09
2023-01-29T06:08:38.656Z,98916.59
2023-01-29T06:11:13.056Z,98902.20
2023-01-29T06:13:46.673Z,98894.62
2023-01-29T06:16:20.016Z,98903.27
2023-01-29T06:18:53.336Z,98895.22
2023-01-29T06:21:26.586Z,98892.81
2023-01-29T06:23:59.614Z,98876.44
2023-01-29T06:26:32.765Z,98888.83
2023-01-29T06:29:05.896Z,98887.33
2023-01-29T06:31:39.872Z,98884.84
2023-01-29T06:34:13.409Z,98885.18
2023-01-29T06:36:46.531Z,98882.70
2023-01-29T06:39:22.951Z,98885.33
2023-01-29T06:42:00.491Z,98884.54
2023-01-29T06:44:39.885Z,98886.38
2023-01-29T06:47:17.952Z,98869.34
2023-01-29T06:49:56.052Z,98867.51
2023-01-29T06:52:36.499Z,98860.09
2023-01-29T06:55:16.266Z,98863.91
2023-01-29T06:57:54.351Z,98870.08
2023-01-29T07:00:32.330Z,98843.96
2023-01-29T07:03:11.609Z,98872.45
2023-01-29T07:05:49.708Z,98859.05
2023-01-29T07:08:33.426Z,98851.52
2023-01-29T07:11:11.273Z,98853.11
2023-01-29T07:13:47.247Z,98855.13
2023-01-29T07:16:25.123Z,98845.20
2023-01-29T07:19:01.788Z,98846.21
2023-01-29T07:21:38.617Z,98866.03
2023-01-29T07:24:19.251Z,98838.19
2023-01-29T07:27:00.531Z,98825.57
2023-01-29T07:29:36.799Z,98835.15
2023-01-29T07:32:13.690Z,98827.55
2023-01-29T07:34:50.589Z,98830.17
2023-01-29T07:37:27.276Z,98830.34
2023-01-29T07:40:01.137Z,98834.87
2023-01-29T07:42:34.185Z,98823.91
2023-01-29T07:45:09.582Z,98834.80
2023-01-29T07:47:42.538Z,98811.03
2023-01-29T07:50:16.196Z,98816.36
2023-01-29T07:52:49.371Z,98817.09
2023-01-29T07:55:22.452Z,98808.84
2023-01-29T07:57:59.371Z,98817.45
2023-01-29T08:00:33.135Z,98809.11
2023-01-29T08:03:07.695Z,98809.58
2023-01-29T08:05:40.930Z,98810.58
2023-01-29T08:08:14.196Z,98804.59
2023-01-29T08:10:47.731Z,98794.70
2023-01-29T08:13:20.981Z,98798.30
2023-01-29T08:15:55.296Z,98793.17
2023-01-29T08:18:28.550Z,98794.91
2023-01-29T08:21:05.376Z,98801.05
2023-01-29T08:23:38.392Z,98800.03
2023-01-29T08:26:11.434Z,98817.33
2023-01-29T08:28:44.567Z,98805.31
2023-01-29T08:31:20.777Z,98797.41
2023-01-29T08:33:54.668Z,98802.23
2023-01-29T08:36:28.213Z,98797.63
2023-01-29T08:39:01.342Z,98789.14
2023-01-29T08:41:37.283Z,98814.09
2023-01-29T08:44:11.117Z,98808.23
2023-01-29T08:46:44.314Z,98823.91
2023-01-29T08:49:17.596Z,98804.77
2023-01-29T08:51:51.431Z,98791.03
2023-01-29T08:54:24.638Z,98796.09
2023-01-29T08:56:58.213Z,98794.17
2023-01-29T08:59:32.016Z,98800.32
2023-01-29T09:02:05.468Z,98795.20
2023-01-29T09:04:38.967Z,98790.81
2023-01-29T09:07:12.285Z,98794.77
2023-01-29T09:09:45.684Z,98791.55
2023-01-29T09:12:19.308Z,98783.35
2023-01-29T09:14:53.023Z,98799.94
2023-01-29T09:17:26.677Z,98774.67
2023-01-29T09:20:00.356Z,98773.81
2023-01-29T09:22:34.163Z,98779.92
2023-01-29T09:25:09.488Z,98762.20
2023-01-29T09:27:44.224Z,98740.34
2023-01-29T09:30:18.884Z,98764.25
2023-01-29T09:32:54.000Z,98753.56
2023-01-29T09:35:27.736Z,98758.23
2023-01-29T09:38:01.357Z,98762.34
2023-01-29T09:40:37.407Z,98745.41
2023-01-29T09:43:13.164Z,98742.66
2023-01-29T09:45:49.345Z,98739.42
2023-01-29T09:48:24.859Z,98743.30
2023-01-29T09:51:00.562Z,98743.13
2023-01-29T09:53:37.666Z,98746.89
2023-01-29T09:56:14.850Z,98733.49
2023-01-29T09:58:47.911Z,98723.64
2023-01-29T10:01:24.487Z,98718.16
2023-01-29T10:04:11.633Z,98705.81
2023-01-29T10:06:51.972Z,98701.09
2023-01-29T10:10:12.773Z,98705.42
2023-01-29T10:13:02.250Z,98692.60
2023-01-29T10:15:51.295Z,98678.23
2023-01-29T10:18:56.505Z,98682.63
2023-01-29T10:21:42.410Z,98663.99
2023-01-29T10:24:21.105Z,98677.31
2023-01-29T10:26:54.928Z,98658.02
2023-01-29T10:29:29.275Z,98669.45
2023-01-29T10:32:06.231Z,98649.02
2023-01-29T10:34:42.148Z,98632.33
2023-01-29T10:37:19.730Z,98624.94
2023-01-29T10:39:53.239Z,98623.02
2023-01-29T10:42:31.328Z,98634.34
2023-01-29T10:45:11.820Z,98629.45
2023-01-29T10:48:02.099Z,98644.30
2023-01-29T10:50:50.017Z,98641.59
2023-01-29T10:53:45.738Z,98624.39
2023-01-29T10:56:30.243Z,98630.22
2023-01-29T10:59:06.884Z,98627.43
2023-01-29T11:01:40.047Z,98619.23
2023-01-29T11:04:15.539Z,98616.46
2023-01-29T11:06:50.712Z,98619.23
2023-01-29T11:09:28.810Z,98601.77
2023-01-29T11:12:04.973Z,98606.58
2023-01-29T11:14:40.832Z,98606.47
2023-01-29T11:17:20.084Z,98592.84
2023-01-29T11:19:52.818Z,98591.14
2023-01-29T11:22:26.707Z,98599.84
2023-01-29T11:25:18.992Z,98594.45
2023-01-29T11:27:53.958Z,98561.30
2023-01-29T11:30:29.342Z,98598.34
2023-01-29T11:33:15.331Z,98588.95
2023-01-29T11:35:49.058Z,98572.56
2023-01-29T11:38:25.217Z,98582.18
2023-01-29T11:41:02.896Z,98585.48
2023-01-29T11:43:36.002Z,98592.20
2023-01-29T11:46:11.079Z,98587.08
2023-01-29T11:48:48.014Z,98593.81
2023-01-29T11:51:26.542Z,98587.67
2023-01-29T11:54:02.503Z,98558.14
2023-01-29T11:56:39.457Z,98565.83
2023-01-29T11:59:25.980Z,98576.94
2023-01-29T12:02:01.641Z,98572.02
2023-01-29T12:04:35.167Z,98569.30
2023-01-29T12:07:14.767Z,98564.18
2023-01-29T12:09:56.367Z,98571.55
2023-01-29T12:12:42.870Z,98572.30
2023-01-29T12:15:25.080Z,98577.36
2023-01-29T12:18:05.169Z,98574.53
2023-01-29T12:20:42.176Z,98578.05
2023-01-29T12:23:21.655Z,98581.63
2023-01-29T12:26:00.018Z,98576.50
2023-01-29T12:28:43.274Z,98572.06
2023-01-29T12:31:30.247Z,98582.31
2023-01-29T12:34:08.495Z,98580.67
2023-01-29T12:36:47.191Z,98573.67
2023-01-29T12:39:20.873Z,98566.67
2023-01-29T12:41:57.920Z,98551.66
2023-01-29T12:44:34.989Z,98575.96
2023-01-29T12:47:11.387Z,98570.84
2023-01-29T12:49:47.466Z,98573.55
2023-01-29T12:52:24.122Z,98588.23
2023-01-29T12:55:00.549Z,98569.35
2023-01-29T12:57:38.697Z,98579.54
2023-01-29T13:00:18.927Z,98561.55
2023-01-29T13:02:56.722Z,98559.10
2023-01-29T13:05:33.459Z,98558.18
2023-01-29T13:08:10.058Z,98564.70
2023-01-29T13:10:47.546Z,98564.64
2023-01-29T13:13:26.092Z,98554.40
2023-01-29T13:16:01.505Z,98538.91
2023-01-29T13:18:44.292Z,98540.52
2023-01-29T13:21:21.230Z,98534.38
2023-01-29T13:23:57.359Z,98534.38
2023-01-29T13:26:32.010Z,98535.28
2023-01-29T13:29:05.896Z,98526.52
2023-01-29T13:31:43.401Z,98535.22
2023-01-29T13:34:19.242Z,98529.27
2023-01-29T13:36:55.641Z,98531.08
2023-01-29T13:39:31.981Z,98528.52
2023-01-29T13:42:08.318Z,98534.47
2023-01-29T13:44:43.050Z,98527.59
2023-01-29T13:47:24.869Z,98536.95
2023-01-29T13:50:01.296Z,98521.40
2023-01-29T13:52:40.061Z,98524.70
2023-01-29T13:55:24.112Z,98519.77
2023-01-29T13:57:58.368Z,98526.64
2023-01-29T14:04:04.193Z,98517.79
2023-01-29T14:06:51.385Z,98520.77
2023-01-29T14:09:56.244Z,98515.80
2023-01-29T14:12:54.507Z,98519.97
2023-01-29T14:15:33.705Z,98515.59
2023-01-29T14:18:25.468Z,98498.14
2023-01-29T14:21:04.587Z,98508.27
2023-01-29T14:23:44.694Z,98505.02
2023-01-29T14:26:30.580Z,98514.52
2023-01-29T14:29:10.343Z,98505.08
2023-01-29T14:31:46.154Z,98505.70
2023-01-29T14:34:26.819Z,98503.36
2023-01-29T14:37:03.240Z,98501.59
2023-01-29T14:39:39.363Z,98496.33
2023-01-29T14:42:22.852Z,98514.34
2023-01-29T14:45:04.341Z,98496.20
2023-01-29T14:48:01.787Z,98499.45
2023-01-29T14:50:49.623Z,98491.72
2023-01-29T14:53:40.432Z,98483.02
2023-01-29T14:56:18.799Z,98493.27
2023-01-29T14:58:56.145Z,98487.98
2023-01-29T15:01:32.968Z,98497.38
2023-01-29T15:04:12.106Z,98492.30
2023-01-29T15:06:48.550Z,98487.98
2023-01-29T15:09:32.724Z,98497.25
2023-01-29T15:12:04.095Z,98499.72
2023-01-29T15:17:26.083Z,98493.38
2023-01-29T15:19:59.798Z,98510.11
2023-01-29T15:22:36.921Z,98494.87
2023-01-29T15:25:15.852Z,98501.63
2023-01-29T15:27:50.515Z,98504.03
2023-01-29T15:30:27.131Z,98502.37
2023-01-29T15:33:02.279Z,98499.87
2023-01-29T15:35:38.700Z,98505.67
2023-01-29T15:38:18.783Z,98494.48
2023-01-29T15:40:57.371Z,98494.36
2023-01-29T15:43:33.237Z,98484.12
2023-01-29T15:46:09.635Z,98489.02
2023-01-29T15:48:46.664Z,98482.89
2023-01-29T15:51:22.540Z,98481.81
2023-01-29T15:54:01.398Z,98481.69
2023-01-29T15:59:22.184Z,98481.97
2023-01-29T16:01:56.687Z,98493.28
2023-01-29T16:04:32.161Z,98489.03
2023-01-29T16:07:06.227Z,98483.05
2023-01-29T16:09:40.028Z,98487.27
2023-01-29T16:12:14.797Z,98480.55
2023-01-29T16:14:50.163Z,98483.17
2023-01-29T16:17:29.199Z,98473.06
2023-01-29T16:20:05.465Z,98478.27
2023-01-29T16:22:40.553Z,98480.09
2023-01-29T16:25:17.406Z,98481.01
2023-01-29T16:27:51.752Z,98480.21
2023-01-29T16:30:28.896Z,98478.61
2023-01-29T16:33:07.767Z,98471.85
2023-01-29T16:35:42.671Z,98478.67
2023-01-29T16:38:28.773Z,98477.86
2023-01-29T16:41:12.644Z,98476.17
2023-01-29T16:43:52.560Z,98478.73
2023-01-29T16:46:36.189Z,98485.60
2023-01-29T16:49:48.378Z,98477.98
2023-01-29T16:52:26.547Z,98461.88
2023-01-29T16:55:07.593Z,98451.53
2023-01-29T16:57:42.594Z,98448.88
2023-01-29T17:00:22.421Z,98451.38
2023-01-29T17:02:59.056Z,98454.95
2023-01-29T17:05:35.397Z,98446.26
2023-01-29T17:08:11.692Z,98442.78
2023-01-29T17:10:49.987Z,98444.50
2023-01-29T17:13:26.943Z,98458.99
2023-01-29T17:16:05.109Z,98447.06
2023-01-29T17:18:39.142Z,98438.46
2023-01-29T17:21:12.471Z,98427.54
2023-01-29T17:23:45.830Z,98424.98
2023-01-29T17:26:19.734Z,98425.94
2023-01-29T17:28:55.869Z,98420.81
2023-01-29T17:31:30.379Z,98431.91
2023-01-29T17:34:04.202Z,98442.03
2023-01-29T17:36:37.787Z,98430.91
2023-01-29T17:39:18.575Z,98429.23
2023-01-29T17:41:53.956Z,98434.47
2023-01-29T17:44:28.043Z,98431.91
2023-01-29T17:47:01.491Z,98444.66
2023-01-29T17:49:35.943Z,98428.67
2023-01-29T17:52:10.218Z,98433.67
2023-01-29T17:54:43.438Z,98430.37
2023-01-29T17:57:18.116Z,98420.66
2023-01-29T17:59:55.294Z,98420.66
2023-01-29T18:02:30.105Z,98418.11
2023-01-29T18:05:03.436Z,98429.30
2023-01-29T18:07:37.255Z,98414.86
2023-01-29T18:10:16.799Z,98410.63
2023-01-29T18:12:50.796Z,98416.29
2023-01-29T18:15:24.512Z,98424.86
2023-01-29T18:17:58.945Z,98412.06
2023-01-29T18:20:35.059Z,98417.98
2023-01-29T18:23:08.890Z,98411.00
2023-01-29T18:25:43.192Z,98432.39
2023-01-29T18:28:18.416Z,98404.92
2023-01-29T18:30:51.761Z,98410.05
2023-01-29T18:33:25.947Z,98403.32
2023-01-29T18:35:59.886Z,98422.16
2023-01-29T18:38:34.115Z,98400.77
2023-01-29T18:41:10.813Z,98411.80
2023-01-29T18:43:44.690Z,98400.08
2023-01-29T18:46:17.838Z,98398.44
2023-01-29T18:48:51.143Z,98397.52
2023-01-29T18:51:24.826Z,98405.19
2023-01-29T18:53:58.244Z,98400.02
2023-01-29T18:56:31.754Z,98394.90
2023-01-29T18:59:06.661Z,98391.45
2023-01-29T19:01:42.053Z,98400.87
2023-01-29T19:04:15.623Z,98398.05
2023-01-29T19:06:48.738Z,98400.67
2023-01-29T19:09:22.421Z,98389.78
2023-01-29T19:11:55.984Z,98388.95
2023-01-29T19:14:29.429Z,98384.57
2023-01-29T19:17:04.708Z,98380.29
2023-01-29T19:19:38.270Z,98370.91
2023-01-29T19:22:12.020Z,98378.38
2023-01-29T19:24:46.029Z,98379.22
2023-01-29T19:27:19.210Z,98367.23
2023-01-29T19:29:53.260Z,98377.46
2023-01-29T19:32:28.201Z,98373.36
2023-01-29T19:35:03.349Z,98372.52
2023-01-29T19:37:36.649Z,98366.66
2023-01-29T19:40:12.325Z,98379.72
2023-01-29T19:42:45.743Z,98358.23
2023-01-29T19:45:37.473Z,98352.14
2023-01-29T19:47:56.468Z,98357.05
2023-01-29T19:50:29.762Z,98348.37
2023-01-29T19:53:03.078Z,98333.22
2023-01-29T19:55:36.292Z,98340.89
2023-01-29T19:58:09.513Z,98344.31
2023-01-29T20:00:42.770Z,98341.91
2023-01-29T20:03:16.652Z,98343.52
2023-01-29T20:05:50.132Z,98340.95
2023-01-29T20:08:24.027Z,98333.16
2023-01-29T20:10:57.570Z,98338.39
2023-01-29T20:13:31.432Z,98342.02
2023-01-29T20:16:05.684Z,98335.41
2023-01-29T20:18:38.879Z,98328.67
2023-01-29T20:21:14.161Z,98318.35
2023-01-29T20:23:47.513Z,98323.41
2023-01-29T20:26:22.005Z,98310.62
2023-01-29T20:28:56.002Z,98311.52
2023-01-29T20:31:29.290Z,98313.23
2023-01-29T20:34:02.602Z,98313.12
2023-01-29T20:36:36.086Z,98308.81
2023-01-29T20:39:09.716Z,98313.18
2023-01-29T20:41:43.185Z,98303.74
2023-01-29T20:44:18.104Z,98305.39
2023-01-29T20:46:51.790Z,98296.77
2023-01-29T20:49:25.396Z,98299.46
2023-01-29T20:51:58.988Z,98290.84
2023-01-29T20:54:33.481Z,98300.27
2023-01-29T20:57:07.446Z,98304.44
2023-01-29T20:59:40.746Z,98306.19
2023-01-29T21:02:14.393Z,98300.27
2023-01-29T21:04:47.811Z,98309.55
2023-01-29T21:07:21.538Z,98301.77
2023-01-29T21:09:55.869Z,98296.59
2023-01-29T21:12:29.181Z,98297.56
2023-01-29T21:15:02.672Z,98282.36
2023-01-29T21:17:36.119Z,98286.58
2023-01-29T21:20:12.229Z,98287.42
2023-01-29T21:22:45.841Z,98288.16
2023-01-29T21:25:21.040Z,98292.34
2023-01-29T21:27:55.286Z,98287.33
2023-01-29T21:30:28.944Z,98268.61
2023-01-29T21:33:02.770Z,98277.98
2023-01-29T21:38:18.374Z,98280.27
2023-01-29T21:40:51.991Z,98275.48
2023-01-29T21:43:25.420Z,98278.16
2023-01-29T21:46:00.727Z,98276.44
2023-01-29T21:48:34.349Z,98278.98
2023-01-29T21:51:08.931Z,98278.05
2023-01-29T21:53:42.609Z,98288.22
2023-01-29T21:56:18.445Z,98276.92
2023-01-29T21:58:51.924Z,98266.75
2023-01-29T22:01:37.304Z,98272.73
2023-01-29T22:04:00.473Z,98265.95
2023-01-29T22:06:34.558Z,98271.98
2023-01-29T22:09:08.398Z,98275.28
2023-01-29T22:11:42.849Z,98265.95
2023-01-29T22:14:18.432Z,98259.33
2023-01-29T22:16:52.141Z,98250.75
2023-01-29T22:19:26.141Z,98261.73
2023-01-29T22:21:59.975Z,98242.61
2023-01-29T22:24:33.555Z,98244.16
2023-01-29T22:27:07.388Z,98235.48
2023-01-29T22:29:40.993Z,98243.91
2023-01-29T22:32:14.790Z,98234.42
2023-01-29T22:34:48.095Z,98230.80
2023-01-29T22:37:21.920Z,98221.32
2023-01-29T22:39:55.615Z,98205.97
2023-01-29T22:42:29.125Z,98207.62
2023-01-29T22:45:02.231Z,98195.63
2023-01-29T22:47:36.103Z,98194.69
2023-01-29T22:50:12.087Z,98198.94
2023-01-29T22:52:46.920Z,98194.63
2023-01-29T22:55:20.913Z,98193.77
2023-01-29T22:57:54.385Z,98189.41
2023-01-29T23:00:28.409Z,98196.07
2023-01-29T23:03:03.624Z,98185.84
2023-01-29T23:05:37.086Z,98188.34
2023-01-29T23:08:10.496Z,98181.67
2023-01-29T23:10:44.110Z,98175.81
2023-01-29T23:13:17.588Z,98188.77
2023-01-29T23:16:00.298Z,98176.78
2023-01-29T23:18:33.919Z,98174.17
2023-01-29T23:21:08.062Z,98163.08
2023-01-29T23:23:44.075Z,98160.58
2023-01-29T23:26:34.703Z,98162.28
2023-01-29T23:29:08.601Z,98140.87
2023-01-29T23:31:41.897Z,98148.59
2023-01-29T23:34:15.368Z,98151.20
2023-01-29T23:36:48.830Z,98148.73
2023-01-29T23:39:22.632Z,98149.59
2023-01-29T23:41:55.968Z,98149.59
2023-01-29T23:44:29.669Z,98141.06
2023-01-29T23:47:03.411Z,98146.23
2023-01-29T23:49:36.883Z,98139.37
2023-01-29T23:52:09.961Z,98130.00
2023-01-29T23:54:43.419Z,98119.02
2023-01-29T23:57:16.737Z,98120.77
2023-01-29T23:59:50.523Z,98113.90
